Time;durP1;ratioP1;P1;durP2;ratioP2;P2;SDS_P1;SDS_P2;PMS_P1;PMS_P2;Temp;Humidity;BMP_temperature;BMP_pressure;BME280_temperature;BME280_humidity;BME280_pressure;Samples;Min_cycle;Max_cycle;Signal;HPM_P1;HPM_P2
2024/03/18 00:04:27;;;;;;;1999.90;999.90;;;;;;;10.48;100.00;101504.13;10415614;28;20057;-66
2024/03/18 00:09:28;;;;;;;1999.90;999.90;;;;;;;10.66;100.00;101495.41;10383828;28;20114;-65
2024/03/18 00:14:29;;;;;;;1999.90;999.90;;;;;;;10.34;100.00;101504.72;10416289;28;20046;-66
2024/03/18 00:19:31;;;;;;;1999.90;999.90;;;;;;;10.35;100.00;101504.66;10415839;28;20049;-65
2024/03/18 00:24:33;;;;;;;1999.90;999.90;;;;;;;10.54;100.00;101501.19;10414921;28;20046;-65
2024/03/18 00:29:34;;;;;;;1999.90;999.90;;;;;;;10.49;100.00;101497.94;10415639;28;20049;-65
2024/03/18 00:34:35;;;;;;;1999.90;999.90;;;;;;;10.45;100.00;101496.41;10382527;28;20053;-66
2024/03/18 00:39:37;;;;;;;1999.90;999.90;;;;;;;10.24;100.00;101496.44;10397541;28;20537;-65
2024/03/18 00:44:38;;;;;;;1999.90;999.90;;;;;;;10.35;100.00;101495.97;10415110;28;20057;-65
2024/03/18 00:49:40;;;;;;;1999.90;999.90;;;;;;;10.25;100.00;101489.41;10414085;28;20049;-65
2024/03/18 00:54:41;;;;;;;1999.90;999.90;;;;;;;10.25;100.00;101487.63;10414253;28;20057;-65
2024/03/18 00:59:43;;;;;;;1999.90;999.90;;;;;;;10.42;100.00;101481.66;10414091;28;20045;-65
2024/03/18 01:04:44;;;;;;;1999.90;999.90;;;;;;;10.30;100.00;101484.81;10396874;28;20418;-65
2024/03/18 01:09:46;;;;;;;1999.90;999.90;;;;;;;10.41;100.00;101477.38;10414057;28;20054;-65
2024/03/18 01:14:48;;;;;;;1999.90;999.90;;;;;;;10.46;100.00;101474.56;10413672;28;20049;-65
2024/03/18 01:19:49;;;;;;;1999.90;999.90;;;;;;;10.54;100.00;101469.78;10412873;28;20522;-65
2024/03/18 01:24:51;;;;;;;1999.90;999.90;;;;;;;10.51;100.00;101462.94;10413274;28;20061;-66
2024/03/18 01:29:53;;;;;;;1999.90;999.90;;;;;;;10.47;100.00;101473.63;10397105;28;20049;-65
2024/03/18 01:34:54;;;;;;;1999.90;999.90;;;;;;;10.64;100.00;101467.59;10380911;28;20065;-65
2024/03/18 01:39:56;;;;;;;1999.90;999.90;;;;;;;10.70;100.00;101460.28;10412037;28;20423;-66
2024/03/18 01:44:57;;;;;;;1999.90;999.90;;;;;;;10.48;100.00;101454.38;10412870;28;20099;-65
2024/03/18 01:49:59;;;;;;;1999.90;999.90;;;;;;;10.84;100.00;101453.56;10413131;28;20065;-66
2024/03/18 01:55:00;;;;;;;1999.90;999.90;;;;;;;10.50;100.00;101448.13;10419055;28;20061;-66
2024/03/18 02:00:04;;;;;;;1999.90;999.90;;;;;;;10.60;100.00;101443.31;10404596;28;20053;-65
2024/03/18 02:05:06;;;;;;;1999.90;999.90;;;;;;;10.81;100.00;101436.22;10404623;28;20068;-66
2024/03/18 02:10:09;;;;;;;1999.90;999.90;;;;;;;10.86;100.00;101435.97;10404794;28;20053;-66
2024/03/18 02:15:11;;;;;;;1999.90;999.90;;;;;;;10.87;100.00;101435.91;10406973;28;20057;-66
2024/03/18 02:20:13;;;;;;;1999.90;999.90;;;;;;;10.88;100.00;101449.88;10403802;28;20053;-66
2024/03/18 02:25:15;;;;;;;1999.90;999.90;;;;;;;10.92;100.00;101439.16;10420410;28;20058;-65
2024/03/18 02:30:16;;;;;;;1999.90;999.90;;;;;;;10.76;100.00;101427.75;10419508;28;20418;-66
2024/03/18 02:35:18;;;;;;;1999.90;999.90;;;;;;;10.80;100.00;101426.66;10402678;28;20445;-66
2024/03/18 02:40:19;;;;;;;1999.90;999.90;;;;;;;10.75;100.00;101426.03;10419055;28;20056;-66
2024/03/18 02:45:22;;;;;;;1999.90;999.90;;;;;;;10.83;100.00;101413.41;10402534;28;20045;-66
2024/03/18 02:50:23;;;;;;;1999.90;999.90;;;;;;;10.97;100.00;101397.84;10419228;28;20048;-66
2024/03/18 02:55:25;;;;;;;1999.90;999.90;;;;;;;10.90;100.00;101409.56;10424917;23;20053;-74
2024/03/18 03:00:26;;;;;;;1999.90;999.90;;;;;;;11.06;100.00;101400.94;10402073;28;20050;-74
2024/03/18 03:05:28;;;;;;;1999.90;999.90;;;;;;;11.13;100.00;101392.72;10401235;28;20050;-74
2024/03/18 03:10:29;;;;;;;1999.90;999.90;;;;;;;10.74;100.00;101392.91;10401506;28;20375;-74
2024/03/18 03:15:37;;;;;;;1999.90;999.90;;;;;;;10.94;100.00;101382.31;10401692;28;20411;-74
2024/03/18 03:20:38;;;;;;;1999.90;999.90;;;;;;;10.89;100.00;101379.06;10418025;28;20045;-74
2024/03/18 03:25:41;;;;;;;1999.90;999.90;;;;;;;11.01;100.00;101379.38;10401886;28;20054;-72
2024/03/18 03:30:42;;;;;;;1999.90;999.90;;;;;;;11.00;100.00;101369.81;10359230;28;20068;-74
2024/03/18 03:35:43;;;;;;;1999.90;999.90;;;;;;;11.03;100.00;101380.13;10360756;28;20111;-74
2024/03/18 03:40:52;;;;;;;1999.90;999.90;;;;;;;11.01;100.00;101388.09;10360553;28;20108;-74
2024/03/18 03:45:59;;;;;;;1999.90;999.90;;;;;;;10.82;100.00;101371.56;10376143;28;20060;-74
2024/03/18 03:51:01;;;;;;;1999.90;999.90;;;;;;;10.74;100.00;101390.28;10360185;28;20049;-75
2024/03/18 03:56:02;;;;;;;1999.90;999.90;;;;;;;10.83;100.00;101381.16;10359065;28;20065;-74
2024/03/18 04:01:04;;;;;;;1999.90;999.90;;;;;;;10.71;100.00;101391.28;10374836;28;20046;-75
2024/03/18 04:06:05;;;;;;;1999.90;999.90;;;;;;;10.99;100.00;101386.47;10375035;28;20411;-75
2024/03/18 04:11:07;;;;;;;1999.90;999.90;;;;;;;10.88;100.00;101385.22;10375322;28;20061;-75
2024/03/18 04:16:09;;;;;;;1999.90;999.90;;;;;;;11.05;100.00;101381.75;10357804;28;20050;-75
2024/03/18 04:21:12;;;;;;;1999.90;999.90;;;;;;;10.88;100.00;101393.09;10374274;28;20049;-75
2024/03/18 04:26:13;;;;;;;1999.90;999.90;;;;;;;10.93;100.00;101383.22;10375076;28;20061;-75
2024/03/18 04:31:15;;;;;;;1999.90;999.90;;;;;;;11.09;100.00;101383.28;10374257;28;20053;-75
2024/03/18 04:36:17;;;;;;;1999.90;999.90;;;;;;;11.11;100.00;101376.22;10358370;28;20050;-75
2024/03/18 04:41:18;;;;;;;1999.90;999.90;;;;;;;11.09;100.00;101372.81;10357582;28;20054;-75
2024/03/18 04:46:20;;;;;;;1999.90;999.90;;;;;;;10.94;100.00;101387.56;10374296;28;20058;-75
2024/03/18 04:51:21;;;;;;;1999.90;999.90;;;;;;;11.04;100.00;101387.91;10374046;28;20050;-75
2024/03/18 04:56:23;;;;;;;1999.90;999.90;;;;;;;10.86;100.00;101396.69;10357345;28;20065;-75
2024/03/18 05:01:24;;;;;;;1999.90;999.90;;;;;;;10.85;100.00;101400.25;10356758;28;20487;-75
2024/03/18 05:06:26;;;;;;;1999.90;999.90;;;;;;;11.09;100.00;101398.19;10373540;28;20054;-75
2024/03/18 05:11:27;;;;;;;1999.90;999.90;;;;;;;11.08;100.00;101399.13;10373584;28;20092;-75
2024/03/18 05:16:35;;;;;;;1999.90;999.90;;;;;;;11.27;100.00;101385.94;10356935;28;20096;-75
2024/03/18 05:21:38;;;;;;;1999.90;999.90;;;;;;;11.05;100.00;101391.41;10356821;28;20116;-75
2024/03/18 05:26:39;;;;;;;1999.90;999.90;;;;;;;11.23;100.00;101387.00;10372929;28;20057;-75
2024/03/18 05:31:40;;;;;;;1999.90;999.90;;;;;;;11.38;100.00;101394.09;10372276;28;20049;-75
2024/03/18 05:36:42;;;;;;;1999.90;999.90;;;;;;;11.21;100.00;101400.16;10355832;28;20046;-75
2024/03/18 05:41:43;;;;;;;1999.90;999.90;;;;;;;11.00;100.00;101406.50;10372394;28;20096;-75
2024/03/18 05:46:45;;;;;;;1999.90;999.90;;;;;;;11.30;100.00;101406.75;10372138;28;20413;-75
2024/03/18 05:51:51;;;;;;;1999.90;999.90;;;;;;;11.25;100.00;101395.66;10358588;28;20054;-75
2024/03/18 05:56:53;;;;;;;1999.90;999.90;;;;;;;10.86;100.00;101405.41;10396040;28;20049;-75
2024/03/18 06:01:54;;;;;;;1999.90;999.90;;;;;;;10.84;100.00;101422.13;10396017;28;20076;-75
2024/03/18 06:06:59;;;;;;;1999.90;999.90;;;;;;;11.14;100.00;101412.75;10396454;28;20056;-75
2024/03/18 06:12:01;;;;;;;1999.90;999.90;;;;;;;11.35;100.00;101407.38;10396355;28;20046;-75
2024/03/18 06:17:04;;;;;;;1999.90;999.90;;;;;;;11.24;100.00;101397.41;10396222;28;20068;-75
2024/03/18 06:22:10;;;;;;;1999.90;999.90;;;;;;;11.03;100.00;101412.44;10395747;28;20049;-75
2024/03/18 06:27:11;;;;;;;1999.90;999.90;;;;;;;11.13;100.00;101413.69;10395797;28;20053;-76
2024/03/18 06:32:13;;;;;;;1999.90;999.90;;;;;;;11.43;100.00;101414.81;10395187;28;20388;-75
2024/03/18 06:37:14;;;;;;;1999.90;999.90;;;;;;;11.27;100.00;101410.34;10395411;28;20521;-74
2024/03/18 06:42:15;;;;;;;1999.90;999.90;;;;;;;11.35;100.00;101404.75;10402503;28;20422;-75
2024/03/18 06:47:17;;;;;;;1999.90;999.90;;;;;;;11.37;100.00;101417.78;10403238;28;20414;-75
2024/03/18 06:52:18;;;;;;;1999.90;999.90;;;;;;;11.60;100.00;101403.47;10403247;28;20057;-75
2024/03/18 06:57:20;;;;;;;1999.90;999.90;;;;;;;11.82;100.00;101411.06;10385871;28;20072;-76
2024/03/18 07:02:21;;;;;;;1999.90;999.90;;;;;;;11.83;100.00;101407.50;10402000;28;20049;-75
2024/03/18 07:07:22;;;;;;;1999.90;999.90;;;;;;;11.90;100.00;101412.34;10401840;28;20423;-76
2024/03/18 07:12:24;;;;;;;1999.90;999.90;;;;;;;11.94;100.00;101415.69;10402297;28;20072;-75
2024/03/18 07:17:26;;;;;;;1999.90;999.90;;;;;;;11.70;100.00;101418.66;10402447;28;20060;-76
2024/03/18 07:22:27;;;;;;;1999.90;999.90;;;;;;;11.84;100.00;101411.84;10384996;28;20053;-76
2024/03/18 07:27:28;;;;;;;1999.90;999.90;;;;;;;11.53;100.00;101413.41;10400978;28;20049;-76
2024/03/18 07:32:30;;;;;;;1999.90;999.90;;;;;;;11.42;100.00;101419.22;10384630;28;20485;-76
2024/03/18 07:37:32;;;;;;;1999.90;999.90;;;;;;;11.72;100.00;101413.31;10401129;28;20053;-76
2024/03/18 07:42:33;;;;;;;1999.90;999.90;;;;;;;12.03;100.00;101401.22;10384241;28;20041;-76
2024/03/18 07:47:35;;;;;;;1999.90;999.90;;;;;;;12.02;100.00;101394.28;10401142;28;20049;-76
2024/03/18 07:52:37;;;;;;;1999.90;999.90;;;;;;;12.08;100.00;101392.16;10398987;28;20049;-76
2024/03/18 07:57:38;;;;;;;1999.90;999.90;;;;;;;11.84;100.00;101401.34;10400510;28;20053;-76
2024/03/18 08:02:40;;;;;;;1999.90;999.90;;;;;;;11.61;100.00;101407.78;10399709;28;20048;-76
2024/03/18 08:07:42;;;;;;;1999.90;999.90;;;;;;;12.13;100.00;101412.09;10399284;28;20529;-76
2024/03/18 08:12:44;;;;;;;1999.90;999.90;;;;;;;12.13;100.00;101414.72;10399270;28;20076;-76
2024/03/18 08:17:45;;;;;;;1999.90;999.90;;;;;;;12.24;100.00;101425.47;10399828;28;20053;-75
2024/03/18 08:22:47;;;;;;;1999.90;999.90;;;;;;;12.06;100.00;101422.06;10399018;28;20049;-76
2024/03/18 08:27:48;;;;;;;1999.90;999.90;;;;;;;12.31;100.00;101429.47;10383300;28;20049;-76
2024/03/18 08:32:49;;;;;;;1999.90;999.90;;;;;;;12.53;100.00;101423.88;10399039;28;20049;-76
2024/03/18 08:37:51;;;;;;;1999.90;999.90;;;;;;;12.47;100.00;101429.44;10399046;28;20057;-76
2024/03/18 08:42:52;;;;;;;1999.90;999.90;;;;;;;12.60;100.00;101440.97;10398456;28;20060;-76
2024/03/18 08:47:53;;;;;;;1999.90;999.90;;;;;;;12.67;100.00;101438.84;10381795;28;20456;-76
2024/03/18 08:52:55;;;;;;;1999.90;999.90;;;;;;;12.44;100.00;101438.34;10399833;28;20053;-76
2024/03/18 08:57:56;;;;;;;1999.90;999.90;;;;;;;12.33;100.00;101442.50;10397913;28;20057;-76
2024/03/18 09:02:58;;;;;;;1999.90;999.90;;;;;;;12.10;100.00;101438.50;10397209;28;20499;-76
2024/03/18 09:08:00;;;;;;;1999.90;999.90;;;;;;;12.46;100.00;101448.78;10397715;28;20053;-76
2024/03/18 09:13:02;;;;;;;1999.90;999.90;;;;;;;12.02;100.00;101454.63;10397005;28;20418;-77
2024/03/18 09:18:04;;;;;;;1999.90;999.90;;;;;;;12.15;100.00;101458.31;10411989;28;20142;-76
2024/03/18 09:23:07;;;;;;;1999.90;999.90;;;;;;;12.04;100.00;101458.03;10425645;28;20052;-76
2024/03/18 09:28:09;;;;;;;1999.90;999.90;;;;;;;11.72;100.00;101452.69;10419699;28;20418;-77
2024/03/18 09:33:11;;;;;;;1999.90;999.90;;;;;;;11.57;100.00;101459.56;10437787;28;20486;-76
2024/03/18 09:38:13;;;;;;;1999.90;999.90;;;;;;;11.99;100.00;101467.94;10407634;28;20062;-77
2024/03/18 09:43:15;;;;;;;1999.90;999.90;;;;;;;12.31;100.00;101463.59;10396544;28;20046;-77
2024/03/18 09:48:16;;;;;;;1999.90;999.90;;;;;;;12.68;100.00;101466.81;10396956;28;20115;-77
2024/03/18 09:53:18;;;;;;;1999.90;999.90;;;;;;;12.68;100.00;101464.19;10379980;28;20053;-77
2024/03/18 09:58:19;;;;;;;1999.90;999.90;;;;;;;12.79;100.00;101467.09;10396964;28;20060;-77
2024/03/18 10:03:21;;;;;;;1999.90;999.90;;;;;;;13.23;100.00;101467.25;10395960;28;20057;-77
2024/03/18 10:08:22;;;;;;;1999.90;999.90;;;;;;;13.36;100.00;101465.63;10380472;28;20061;-78
2024/03/18 10:13:24;;;;;;;1999.90;999.90;;;;;;;13.07;100.00;101472.56;10397729;28;20510;-77
2024/03/18 10:18:28;;;;;;;1999.90;999.90;;;;;;;13.50;100.00;101465.69;10404310;28;20108;-77
2024/03/18 10:23:30;;;;;;;1999.90;999.90;;;;;;;13.40;100.00;101472.41;10403693;28;20521;-78
2024/03/18 10:28:31;;;;;;;1999.90;999.90;;;;;;;12.98;100.00;101477.41;10403266;28;20049;-78
2024/03/18 10:33:33;;;;;;;1999.90;999.90;;;;;;;12.15;100.00;101471.44;10403637;28;20045;-77
2024/03/18 10:38:38;;;;;;;1999.90;999.90;;;;;;;12.78;100.00;101470.63;10402932;28;20556;-78
2024/03/18 10:43:42;;;;;;;1999.90;999.90;;;;;;;12.67;100.00;101480.88;10403249;28;20050;-78
2024/03/18 10:48:45;;;;;;;1999.90;999.90;;;;;;;13.04;100.00;101488.50;10403612;28;20107;-78
2024/03/18 10:53:47;;;;;;;1999.90;999.90;;;;;;;12.28;100.00;101492.63;10402383;28;20060;-78
2024/03/18 10:58:49;;;;;;;1999.90;999.90;;;;;;;12.63;100.00;101501.22;10402187;28;20057;-78
2024/03/18 11:03:52;;;;;;;1999.90;999.90;;;;;;;12.72;100.00;101499.88;10402283;28;20037;-78
2024/03/18 11:08:56;;;;;;;1999.90;999.90;;;;;;;12.56;100.00;101499.88;10401571;28;20514;-78
2024/03/18 11:14:02;;;;;;;1999.90;999.90;;;;;;;12.60;100.00;101511.06;10402135;28;20053;-77
2024/03/18 11:19:07;;;;;;;1999.90;999.90;;;;;;;12.32;100.00;101515.16;10402034;28;20057;-77
2024/03/18 11:24:08;;;;;;;1999.90;999.90;;;;;;;12.55;100.00;101518.34;10400945;28;20041;-78
2024/03/18 11:29:11;;;;;;;1999.90;999.90;;;;;;;12.59;100.00;101517.22;10400982;28;20057;-78
2024/03/18 11:34:14;;;;;;;1999.90;999.90;;;;;;;13.17;100.00;101516.63;10401641;28;20061;-78
2024/03/18 11:39:17;;;;;;;1999.90;999.90;;;;;;;13.02;100.00;101520.13;10401518;28;20054;-79
2024/03/18 11:44:18;;;;;;;1999.90;999.90;;;;;;;13.64;100.00;101520.09;10400536;28;20041;-79
2024/03/18 11:49:21;;;;;;;1999.90;999.90;;;;;;;14.92;96.93;101519.38;10400606;28;20054;-79
2024/03/18 11:54:24;;;;;;;1999.90;999.90;;;;;;;18.60;88.39;101510.69;10401487;28;20049;-80
2024/03/18 11:59:25;;;;;;;1999.90;999.90;;;;;;;18.92;74.69;101508.09;10405708;28;20510;-81
2024/03/18 12:04:27;;;;;;;1999.90;999.90;;;;;;;17.45;75.01;101508.88;10399850;28;20049;-81
2024/03/18 12:09:29;;;;;;;1999.90;999.90;;;;;;;15.58;77.19;101509.75;10399481;28;20049;-81
2024/03/18 12:14:31;;;;;;;1999.90;999.90;;;;;;;16.50;77.15;101506.06;10399406;28;20049;-81
2024/03/18 12:19:32;;;;;;;1999.90;999.90;;;;;;;18.54;72.72;101502.25;10400388;28;20057;-82
2024/03/18 12:29:58;;;;;;;1999.90;999.90;;;;;;;16.85;73.91;101499.22;10399699;28;20068;-81
2024/03/18 12:35:00;;;;;;;1999.90;999.90;;;;;;;16.32;75.56;101492.38;10398612;28;20494;-81
2024/03/18 12:40:06;;;;;;;1999.90;999.90;;;;;;;16.38;74.30;101491.09;10382591;28;20057;-81
2024/03/18 12:45:11;;;;;;;1999.90;999.90;;;;;;;17.30;75.25;101494.16;10398418;28;20545;-81
2024/03/18 12:50:16;;;;;;;1999.90;999.90;;;;;;;17.03;71.19;101495.25;10398040;28;20053;-82
2024/03/18 12:55:18;;;;;;;1999.90;999.90;;;;;;;16.90;72.95;101500.56;10397819;28;20065;-82
2024/03/18 13:00:20;;;;;;;1999.90;999.90;;;;;;;16.58;73.38;101502.03;10398007;28;20049;-80
2024/03/18 13:05:21;;;;;;;1999.90;999.90;;;;;;;17.11;71.43;101494.66;10397488;28;20418;-81
2024/03/18 13:10:23;;;;;;;1999.90;999.90;;;;;;;18.30;69.68;101497.09;10382043;28;20080;-82
2024/03/18 13:15:24;;;;;;;1999.90;999.90;;;;;;;20.48;61.29;101471.88;10398306;28;20062;-84
2024/03/18 13:20:27;;;;;;;1999.90;999.90;;;;;;;22.61;58.86;101471.66;10397521;28;20076;-83
2024/03/18 13:25:28;;;;;;;1999.90;999.90;;;;;;;18.63;63.15;101505.16;10383249;28;20517;-83
2024/03/18 13:30:29;;;;;;;1999.90;999.90;;;;;;;17.96;67.89;101491.78;10397347;28;20057;-83
2024/03/18 13:35:32;;;;;;;1999.90;999.90;;;;;;;17.20;66.84;101493.97;10405872;28;20045;-82
2024/03/18 13:40:34;;;;;;;1999.90;999.90;;;;;;;17.66;66.79;101479.06;10401735;28;20491;-82
2024/03/18 13:45:35;;;;;;;1999.90;999.90;;;;;;;17.11;66.80;101480.59;10397045;28;20111;-82
2024/03/18 13:50:37;;;;;;;1999.90;999.90;;;;;;;16.47;69.74;101492.22;10402940;28;20099;-81
2024/03/18 13:55:39;;;;;;;1999.90;999.90;;;;;;;16.02;67.15;101494.50;10404975;28;20430;-81
2024/03/18 14:00:41;;;;;;;1999.90;999.90;;;;;;;15.19;68.16;101493.00;10405073;28;20049;-80
2024/03/18 14:05:42;;;;;;;1999.90;999.90;;;;;;;16.41;70.10;101484.72;10404688;28;20064;-81
2024/03/18 14:10:44;;;;;;;1999.90;999.90;;;;;;;16.19;68.26;101502.09;10404160;28;20482;-80
2024/03/18 14:15:45;;;;;;;1999.90;999.90;;;;;;;16.15;70.79;101501.47;10388228;28;20052;-80
2024/03/18 14:20:47;;;;;;;1999.90;999.90;;;;;;;15.79;71.40;101494.28;10404155;28;20041;-81
2024/03/18 14:25:48;;;;;;;1999.90;999.90;;;;;;;15.94;70.20;101490.59;10403678;28;20060;-81
2024/03/18 14:30:50;;;;;;;1999.90;999.90;;;;;;;15.12;69.37;101491.72;10403180;28;20050;-80
2024/03/18 14:35:51;;;;;;;1999.90;999.90;;;;;;;15.41;69.99;101485.34;10415994;28;20057;-81
2024/03/18 14:40:53;;;;;;;1999.90;999.90;;;;;;;15.31;70.11;101492.16;10402936;28;20407;-81
2024/03/18 14:45:54;;;;;;;1999.90;999.90;;;;;;;15.84;68.34;101494.00;10412161;28;20606;-81
2024/03/18 14:50:56;;;;;;;1999.90;999.90;;;;;;;15.99;66.55;101495.56;10406830;28;20422;-81
2024/03/18 14:55:58;;;;;;;1999.90;999.90;;;;;;;16.04;68.70;101496.09;10406916;28;20080;-81
2024/03/18 15:00:59;;;;;;;1999.90;999.90;;;;;;;16.67;69.57;101491.63;10401932;28;20095;-82
2024/03/18 15:06:01;;;;;;;1999.90;999.90;;;;;;;16.64;66.30;101491.00;10408926;28;20057;-82
2024/03/18 15:11:03;;;;;;;1999.90;999.90;;;;;;;16.27;66.18;101494.50;10413882;22;20526;-71
2024/03/18 15:16:05;;;;;;;1999.90;999.90;;;;;;;17.50;65.68;101492.66;10419124;28;20061;-71
2024/03/18 15:21:10;;;;;;;1999.90;999.90;;;;;;;20.27;58.30;101485.22;10402193;28;20049;-71
2024/03/18 15:31:32;;;;;;;1999.90;999.90;;;;;;;19.24;59.47;101486.88;10404314;28;20095;-72
2024/03/18 15:36:35;;;;;;;1999.90;999.90;;;;;;;20.01;52.47;101484.88;10417411;28;20072;-72
2024/03/18 15:41:37;;;;;;;1999.90;999.90;;;;;;;17.27;59.45;101502.31;10384771;28;20045;-72
2024/03/18 15:46:40;;;;;;;1999.90;999.90;;;;;;;16.51;62.10;101494.53;10400451;28;20057;-72
2024/03/18 15:51:41;;;;;;;1999.90;999.90;;;;;;;17.37;62.92;101491.88;10400158;28;20076;-72
2024/03/18 15:56:44;;;;;;;1999.90;999.90;;;;;;;17.03;59.86;101497.00;10384827;28;20053;-72
2024/03/18 16:01:45;;;;;;;1999.90;999.90;;;;;;;16.88;64.68;101504.31;10400077;28;20482;-72
2024/03/18 16:06:47;;;;;;;1999.90;999.90;;;;;;;16.64;63.03;101498.94;10416407;28;20502;-72
2024/03/18 16:11:49;;;;;;;1999.90;999.90;;;;;;;16.32;62.50;101496.78;10399339;28;20058;-72
2024/03/18 16:16:50;;;;;;;1999.90;999.90;;;;;;;16.03;65.37;101506.75;10416651;28;20057;-72
2024/03/18 16:21:52;;;;;;;1999.90;999.90;;;;;;;16.03;66.48;101509.41;10399122;28;20050;-72
2024/03/18 16:26:54;;;;;;;1999.90;999.90;;;;;;;15.98;65.79;101499.97;10399076;28;20060;-71
2024/03/18 16:31:55;;;;;;;1999.90;999.90;;;;;;;15.48;65.37;101503.41;10399242;28;20085;-71
2024/03/18 16:36:56;;;;;;;1999.90;999.90;;;;;;;15.44;65.47;101515.97;10399035;28;20053;-72
2024/03/18 16:41:58;;;;;;;1999.90;999.90;;;;;;;15.30;67.14;101516.00;10398471;28;20049;-72
2024/03/18 16:46:59;;;;;;;1999.90;999.90;;;;;;;15.15;67.84;101516.09;10382249;28;20064;-71
2024/03/18 16:52:03;;;;;;;1999.90;999.90;;;;;;;15.58;69.59;101526.44;10398550;28;20053;-71
2024/03/18 16:57:05;;;;;;;1999.90;999.90;;;;;;;15.16;69.29;101528.34;10381947;28;20056;-71
2024/03/18 17:02:10;;;;;;;1999.90;999.90;;;;;;;15.15;67.92;101531.91;10397318;28;20053;-71
2024/03/18 17:07:11;;;;;;;1999.90;999.90;;;;;;;14.89;68.17;101532.75;10397871;28;20058;-71
2024/03/18 17:12:13;;;;;;;1999.90;999.90;;;;;;;14.24;71.08;101536.72;10397885;28;20074;-71
2024/03/18 17:17:14;;;;;;;1999.90;999.90;;;;;;;14.23;73.50;101542.94;10397252;28;20064;-71
2024/03/18 17:22:16;;;;;;;1999.90;999.90;;;;;;;13.74;72.67;101544.09;10413367;28;20084;-71
2024/03/18 17:27:18;;;;;;;1999.90;999.90;;;;;;;13.43;75.11;101539.78;10397426;28;20057;-71
2024/03/18 17:32:20;;;;;;;1999.90;999.90;;;;;;;13.04;77.06;101547.16;10380822;28;20057;-71
2024/03/18 17:37:21;;;;;;;1999.90;999.90;;;;;;;12.67;80.77;101548.34;10381098;28;20131;-71
2024/03/18 17:42:25;;;;;;;1999.90;999.90;;;;;;;12.38;82.43;101559.47;10396682;28;20406;-71
2024/03/18 17:47:26;;;;;;;1999.90;999.90;;;;;;;12.31;84.03;101562.53;10413166;28;20064;-71
2024/03/18 17:52:30;;;;;;;1999.90;999.90;;;;;;;12.20;85.84;101571.78;10412556;28;20053;-71
2024/03/18 17:57:31;;;;;;;1999.90;999.90;;;;;;;12.19;87.44;101577.16;10397221;28;20115;-71
2024/03/18 18:02:33;;;;;;;1999.90;999.90;;;;;;;12.02;91.51;101585.84;10396561;28;20045;-71
2024/03/18 18:07:35;;;;;;;1999.90;999.90;;;;;;;11.93;92.15;101576.69;10382539;28;20068;-71
2024/03/18 18:12:37;;;;;;;1999.90;999.90;;;;;;;11.76;89.68;101585.38;10379655;28;20057;-71
2024/03/18 18:17:38;;;;;;;1999.90;999.90;;;;;;;11.46;93.72;101598.22;10395989;28;20045;-71
2024/03/18 18:22:40;;;;;;;1999.90;999.90;;;;;;;11.42;94.16;101602.75;10395968;28;20045;-71
2024/03/18 18:27:41;;;;;;;1999.90;999.90;;;;;;;11.29;95.10;101604.28;10379621;28;20053;-70
2024/03/18 18:32:43;;;;;;;1999.90;999.90;;;;;;;11.40;94.59;101616.84;10395836;28;20049;-70
2024/03/18 18:37:46;;;;;;;1999.90;999.90;;;;;;;11.30;96.69;101619.94;10403024;28;20061;-70
2024/03/18 18:42:50;;;;;;;1999.90;999.90;;;;;;;11.20;96.40;101615.22;10387151;28;20478;-70
2024/03/18 18:47:51;;;;;;;1999.90;999.90;;;;;;;11.24;92.25;101628.06;10387583;28;20042;-70
2024/03/18 18:52:55;;;;;;;1999.90;999.90;;;;;;;11.02;94.00;101628.22;10403419;28;20045;-70
2024/03/18 18:57:57;;;;;;;1999.90;999.90;;;;;;;10.99;93.92;101627.53;10403212;28;20049;-70
2024/03/18 19:02:58;;;;;;;1999.90;999.90;;;;;;;11.10;94.00;101636.59;10402275;28;20041;-70
2024/03/18 19:08:00;;;;;;;1999.90;999.90;;;;;;;10.97;97.36;101643.31;10401711;28;20061;-70
2024/03/18 19:13:01;;;;;;;1999.90;999.90;;;;;;;11.02;97.54;101648.34;10401625;28;20486;-70
2024/03/18 19:18:03;;;;;;;1999.90;999.90;;;;;;;10.93;97.79;101654.84;10401739;28;20410;-70
2024/03/18 19:23:04;;;;;;;1999.90;999.90;;;;;;;11.12;98.63;101647.84;10418396;28;20053;-70
2024/03/18 19:28:06;;;;;;;1999.90;999.90;;;;;;;11.09;97.82;101649.75;10402115;28;20068;-70
2024/03/18 19:33:09;;;;;;;1999.90;999.90;;;;;;;11.18;96.00;101645.84;10401003;28;20080;-70
2024/03/18 19:38:14;;;;;;;1999.90;999.90;;;;;;;11.11;96.42;101656.63;10401557;28;20064;-70
2024/03/18 19:43:15;;;;;;;1999.90;999.90;;;;;;;10.97;96.88;101659.03;10401477;28;20104;-70
2024/03/18 19:48:17;;;;;;;1999.90;999.90;;;;;;;10.97;96.90;101659.03;10385263;28;20056;-70
2024/03/18 19:53:18;;;;;;;1999.90;999.90;;;;;;;10.66;99.98;101651.69;10417131;28;20045;-70
2024/03/18 19:58:19;;;;;;;1999.90;999.90;;;;;;;10.49;100.00;101655.91;10417269;28;20053;-70
2024/03/18 20:03:21;;;;;;;1999.90;999.90;;;;;;;10.66;100.00;101656.91;10399947;28;20076;-70
2024/03/18 20:08:23;;;;;;;1999.90;999.90;;;;;;;10.41;100.00;101665.84;10383471;28;20057;-70
2024/03/18 20:13:24;;;;;;;1999.90;999.90;;;;;;;10.34;100.00;101665.28;10399641;28;20045;-70
2024/03/18 20:18:26;;;;;;;1999.90;999.90;;;;;;;10.32;100.00;101666.22;10399676;28;20053;-70
2024/03/18 20:23:27;;;;;;;1999.90;999.90;;;;;;;10.15;100.00;101673.00;10399687;28;20060;-70
2024/03/18 20:28:29;;;;;;;1999.90;999.90;;;;;;;10.22;100.00;101677.06;10402370;28;20049;-70
2024/03/18 20:33:30;;;;;;;1999.90;999.90;;;;;;;10.33;100.00;101671.41;10398427;28;20517;-70
2024/03/18 20:38:33;;;;;;;1999.90;999.90;;;;;;;10.00;100.00;101678.84;10398470;28;20449;-70
2024/03/18 20:43:34;;;;;;;1999.90;999.90;;;;;;;9.92;100.00;101679.19;10398247;28;20084;-70
2024/03/18 20:48:36;;;;;;;1999.90;999.90;;;;;;;10.01;100.00;101681.41;10415083;28;20049;-70
2024/03/18 20:53:40;;;;;;;1999.90;999.90;;;;;;;9.88;100.00;101671.53;10381604;28;20048;-70
2024/03/18 20:58:41;;;;;;;1999.90;999.90;;;;;;;9.67;100.00;101668.84;10398192;28;20060;-70
2024/03/18 21:03:43;;;;;;;1999.90;999.90;;;;;;;9.54;100.00;101673.72;10397708;28;20045;-70
2024/03/18 21:08:44;;;;;;;1999.90;999.90;;;;;;;9.55;100.00;101672.81;10413599;28;20057;-70
2024/03/18 21:13:45;;;;;;;1999.90;999.90;;;;;;;9.39;100.00;101674.31;10413582;28;20049;-70
2024/03/18 21:18:47;;;;;;;1999.90;999.90;;;;;;;9.38;100.00;101668.25;10413406;28;20465;-70
2024/03/18 21:23:48;;;;;;;1999.90;999.90;;;;;;;9.20;100.00;101674.16;10413250;28;20103;-70
2024/03/18 21:28:51;;;;;;;1999.90;999.90;;;;;;;9.10;100.00;101677.09;10397290;28;20065;-70
2024/03/18 21:33:53;;;;;;;1999.90;999.90;;;;;;;9.07;100.00;101665.91;10380386;28;20560;-70
2024/03/18 21:38:54;;;;;;;1999.90;999.90;;;;;;;8.92;100.00;101675.16;10396629;28;20486;-70
2024/03/18 21:43:58;;;;;;;1999.90;999.90;;;;;;;8.99;100.00;101674.03;10380675;28;20049;-70
2024/03/18 21:49:00;;;;;;;1999.90;999.90;;;;;;;8.96;100.00;101674.16;10413098;28;20061;-70
2024/03/18 21:54:03;;;;;;;1999.90;999.90;;;;;;;8.86;100.00;101678.88;10397291;28;20096;-70